VIV148 MMTG-MMTJ
Flight info
| Callsign | VIV148 |
|---|---|
| Flight time | 4h 14m |
| Altitude | 34000 |
| Route | TGZ1B TGZ UA552 VER UT61 AVALI UL655 PELNI/N0462F340 UL655 PPE UJ3 TANRI TANRI1B |
| Aircraft | A320/M-SDE3FGHIRWY/LB1 |
Departure
| Time | 2026-05-03 22:07 |
|---|---|
| Airport | Angel Albino Corzo International Airport (MMTG) |
Arrival
| Time | 2026-05-04 02:21 |
|---|---|
| Airport | General Abelardo L. Rodriguez International Airport (MMTJ) |
| Time | Latitude | Longitude | Altitude | Speed | Heading |
|---|---|---|---|---|---|
| 2026-05-03 21:47 | 16.56085 | -93.02102 | 1515 ft | 0 kts | 107° |
| 2026-05-03 21:58 | 16.56090 | -93.02116 | 1512 ft | 4 kts | 127° |
| 2026-05-03 21:59 | 16.56103 | -93.02126 | 1513 ft | 4 kts | 217° |
| 2026-05-03 21:59 | 16.56111 | -93.02119 | 1510 ft | 0 kts | 238° |
| 2026-05-03 22:02 | 16.56108 | -93.02124 | 1514 ft | 4 kts | 238° |
| 2026-05-03 22:03 | 16.56050 | -93.02202 | 1514 ft | 12 kts | 194° |
| 2026-05-03 22:03 | 16.56000 | -93.02175 | 1514 ft | 10 kts | 150° |
| 2026-05-03 22:03 | 16.55912 | -93.02122 | 1514 ft | 16 kts | 158° |
| 2026-05-03 22:03 | 16.55823 | -93.02170 | 1513 ft | 15 kts | 186° |
| 2026-05-03 22:04 | 16.55732 | -93.02120 | 1514 ft | 15 kts | 148° |
| 2026-05-03 22:04 | 16.55644 | -93.02064 | 1514 ft | 15 kts | 149° |
| 2026-05-03 22:04 | 16.55550 | -93.02007 | 1513 ft | 16 kts | 149° |
| 2026-05-03 22:04 | 16.55456 | -93.01948 | 1511 ft | 16 kts | 146° |
| 2026-05-03 22:05 | 16.55359 | -93.01882 | 1513 ft | 17 kts | 151° |
| 2026-05-03 22:05 | 16.55274 | -93.01927 | 1512 ft | 4 kts | 238° |
| 2026-05-03 22:05 | 16.55259 | -93.01952 | 1512 ft | 5 kts | 238° |
| 2026-05-03 22:05 | 16.55249 | -93.01989 | 1512 ft | 6 kts | 274° |
| 2026-05-03 22:06 | 16.55269 | -93.02024 | 1511 ft | 6 kts | 310° |
| 2026-05-03 22:06 | 16.55309 | -93.02052 | 1513 ft | 16 kts | 328° |
| 2026-05-03 22:06 | 16.55610 | -93.02247 | 1514 ft | 84 kts | 328° |
| 2026-05-03 22:06 | 16.56263 | -93.02660 | 1513 ft | 133 kts | 328° |
| 2026-05-03 22:07 | 16.57149 | -93.03216 | 1788 ft | 152 kts | 326° |
| 2026-05-03 22:07 | 16.58057 | -93.03759 | 2568 ft | 149 kts | 329° |
| 2026-05-03 22:07 | 16.58928 | -93.04323 | 2961 ft | 150 kts | 324° |
| 2026-05-03 22:07 | 16.59849 | -93.04942 | 3100 ft | 164 kts | 327° |
| 2026-05-03 22:08 | 16.60837 | -93.05615 | 3299 ft | 176 kts | 321° |
| 2026-05-03 22:08 | 16.61752 | -93.06518 | 3635 ft | 184 kts | 318° |
| 2026-05-03 22:08 | 16.62701 | -93.07504 | 3751 ft | 201 kts | 316° |
| 2026-05-03 22:08 | 16.63730 | -93.08585 | 3895 ft | 218 kts | 317° |
| 2026-05-03 22:09 | 16.64848 | -93.09759 | 4091 ft | 239 kts | 318° |
| 2026-05-03 22:09 | 16.66057 | -93.11026 | 4430 ft | 252 kts | 318° |
| 2026-05-03 22:09 | 16.67280 | -93.12311 | 5228 ft | 249 kts | 319° |
| 2026-05-03 22:10 | 16.69763 | -93.14920 | 6503 ft | 258 kts | 318° |
| 2026-05-03 22:10 | 16.71047 | -93.16265 | 7055 ft | 265 kts | 317° |
| 2026-05-03 22:10 | 16.72361 | -93.17639 | 7633 ft | 271 kts | 317° |
| 2026-05-03 22:10 | 16.73694 | -93.19039 | 8275 ft | 273 kts | 316° |
| 2026-05-03 22:11 | 16.75053 | -93.20464 | 8821 ft | 280 kts | 316° |
| 2026-05-03 22:11 | 16.76435 | -93.21915 | 9381 ft | 284 kts | 316° |
| 2026-05-03 22:11 | 16.77847 | -93.23399 | 9892 ft | 292 kts | 315° |
| 2026-05-03 22:11 | 16.79308 | -93.24938 | 10141 ft | 308 kts | 315° |
| 2026-05-03 22:12 | 16.80863 | -93.26574 | 10260 ft | 327 kts | 315° |
| 2026-05-03 22:12 | 16.82510 | -93.28304 | 10378 ft | 344 kts | 315° |
| 2026-05-03 22:12 | 16.84223 | -93.30101 | 10691 ft | 353 kts | 315° |
| 2026-05-03 22:12 | 16.85963 | -93.31926 | 11168 ft | 356 kts | 315° |
| 2026-05-03 22:13 | 16.87716 | -93.33763 | 11685 ft | 358 kts | 315° |
| 2026-05-03 22:13 | 16.89497 | -93.35585 | 12190 ft | 360 kts | 316° |
| 2026-05-03 22:13 | 16.91308 | -93.37405 | 12670 ft | 363 kts | 316° |
| 2026-05-03 22:13 | 16.93137 | -93.39232 | 13171 ft | 365 kts | 316° |
| 2026-05-03 22:14 | 16.94975 | -93.41067 | 13681 ft | 367 kts | 316° |
| 2026-05-03 22:14 | 16.96816 | -93.42910 | 14174 ft | 367 kts | 316° |
| 2026-05-03 22:14 | 16.98666 | -93.44763 | 14568 ft | 370 kts | 316° |
| 2026-05-03 22:14 | 17.00526 | -93.46630 | 14995 ft | 372 kts | 316° |
| 2026-05-03 22:15 | 17.02397 | -93.48514 | 15416 ft | 375 kts | 316° |
| 2026-05-03 22:15 | 17.04251 | -93.50384 | 15876 ft | 376 kts | 316° |
| 2026-05-03 22:15 | 17.06140 | -93.52293 | 16342 ft | 378 kts | 316° |
| 2026-05-03 22:15 | 17.08030 | -93.54203 | 16844 ft | 379 kts | 316° |
| 2026-05-03 22:16 | 17.09934 | -93.56130 | 17215 ft | 382 kts | 316° |
| 2026-05-03 22:16 | 17.11852 | -93.58069 | 17598 ft | 386 kts | 316° |
| 2026-05-03 22:16 | 17.13793 | -93.60028 | 17992 ft | 388 kts | 316° |
| 2026-05-03 22:16 | 17.15102 | -93.61348 | 18306 ft | 389 kts | 316° |
| 2026-05-03 22:17 | 17.17052 | -93.63318 | 18652 ft | 390 kts | 316° |
| 2026-05-03 22:17 | 17.19005 | -93.65293 | 19044 ft | 392 kts | 316° |
| 2026-05-03 22:17 | 17.20970 | -93.67282 | 19367 ft | 394 kts | 316° |
| 2026-05-03 22:17 | 17.22927 | -93.69257 | 19663 ft | 398 kts | 316° |
| 2026-05-03 22:18 | 17.24926 | -93.71274 | 20017 ft | 399 kts | 316° |
| 2026-05-03 22:18 | 17.26929 | -93.73298 | 20391 ft | 401 kts | 316° |
| 2026-05-03 22:18 | 17.28934 | -93.75327 | 20772 ft | 402 kts | 316° |
| 2026-05-03 22:18 | 17.30948 | -93.77369 | 21075 ft | 405 kts | 316° |
| 2026-05-03 22:19 | 17.32976 | -93.79423 | 21394 ft | 407 kts | 316° |
| 2026-05-03 22:19 | 17.35017 | -93.81490 | 21734 ft | 409 kts | 316° |
| 2026-05-03 22:19 | 17.37060 | -93.83558 | 22115 ft | 409 kts | 316° |
| 2026-05-03 22:19 | 17.39105 | -93.85631 | 22473 ft | 410 kts | 316° |
| 2026-05-03 22:20 | 17.41163 | -93.87716 | 22757 ft | 413 kts | 316° |
| 2026-05-03 22:20 | 17.43229 | -93.89814 | 23030 ft | 415 kts | 316° |
| 2026-05-03 22:20 | 17.45306 | -93.91922 | 23304 ft | 417 kts | 316° |
| 2026-05-03 22:20 | 17.47397 | -93.94042 | 23607 ft | 419 kts | 316° |
| 2026-05-03 22:21 | 17.49489 | -93.96168 | 23866 ft | 420 kts | 316° |
| 2026-05-03 22:21 | 17.51589 | -93.98304 | 24114 ft | 422 kts | 316° |
| 2026-05-03 22:21 | 17.53699 | -94.00451 | 24347 ft | 424 kts | 316° |
| 2026-05-03 22:21 | 17.55822 | -94.02608 | 24564 ft | 426 kts | 316° |
| 2026-05-03 22:22 | 17.57954 | -94.04773 | 24818 ft | 427 kts | 316° |
| 2026-05-03 22:22 | 17.60092 | -94.06942 | 25074 ft | 428 kts | 315° |
| 2026-05-03 22:22 | 17.62232 | -94.09116 | 25307 ft | 430 kts | 315° |
| 2026-05-03 22:22 | 17.64384 | -94.11303 | 25516 ft | 432 kts | 315° |
| 2026-05-03 22:23 | 17.66542 | -94.13504 | 25725 ft | 434 kts | 315° |
| 2026-05-03 22:23 | 17.68705 | -94.15715 | 25998 ft | 435 kts | 315° |
| 2026-05-03 22:23 | 17.70876 | -94.17932 | 26261 ft | 436 kts | 315° |
| 2026-05-03 22:23 | 17.73053 | -94.20153 | 26492 ft | 437 kts | 315° |
| 2026-05-03 22:24 | 17.75235 | -94.22377 | 26746 ft | 438 kts | 315° |
| 2026-05-03 22:24 | 17.77427 | -94.24611 | 26946 ft | 440 kts | 315° |
| 2026-05-03 22:24 | 17.79625 | -94.26848 | 27179 ft | 441 kts | 315° |
| 2026-05-03 22:24 | 17.81825 | -94.29091 | 27469 ft | 440 kts | 315° |
| 2026-05-03 22:25 | 17.84017 | -94.31331 | 27825 ft | 439 kts | 315° |
| 2026-05-03 22:25 | 17.86203 | -94.33565 | 28124 ft | 439 kts | 315° |
| 2026-05-03 22:25 | 17.88395 | -94.35807 | 28394 ft | 440 kts | 315° |
| 2026-05-03 22:25 | 17.90583 | -94.38041 | 28750 ft | 439 kts | 315° |
| 2026-05-03 22:26 | 17.92766 | -94.40272 | 29120 ft | 437 kts | 314° |
| 2026-05-03 22:26 | 17.94943 | -94.42498 | 29447 ft | 437 kts | 314° |
| 2026-05-03 22:26 | 17.97121 | -94.44726 | 29757 ft | 437 kts | 314° |
| 2026-05-03 22:26 | 17.99303 | -94.46959 | 30087 ft | 438 kts | 314° |
| 2026-05-03 22:27 | 18.01476 | -94.49186 | 30438 ft | 436 kts | 314° |
| 2026-05-03 22:27 | 18.03646 | -94.51410 | 30761 ft | 435 kts | 314° |
| 2026-05-03 22:27 | 18.05808 | -94.53627 | 31042 ft | 434 kts | 314° |
| 2026-05-03 22:27 | 18.07968 | -94.55842 | 31331 ft | 434 kts | 314° |
| 2026-05-03 22:28 | 18.10082 | -94.58107 | 31594 ft | 433 kts | 309° |
| 2026-05-03 22:28 | 18.11853 | -94.60614 | 31862 ft | 432 kts | 303° |
| 2026-05-03 22:28 | 18.13547 | -94.63218 | 32148 ft | 432 kts | 303° |
| 2026-05-03 22:28 | 18.15250 | -94.65818 | 32448 ft | 431 kts | 304° |
| 2026-05-03 22:29 | 18.16954 | -94.68412 | 32757 ft | 431 kts | 304° |
| 2026-05-03 22:29 | 18.18655 | -94.70999 | 33046 ft | 430 kts | 304° |
| 2026-05-03 22:29 | 18.20355 | -94.73588 | 33402 ft | 429 kts | 304° |
| 2026-05-03 22:29 | 18.22046 | -94.76170 | 33715 ft | 428 kts | 304° |
| 2026-05-03 22:30 | 18.23734 | -94.78753 | 33955 ft | 429 kts | 304° |
| 2026-05-03 22:30 | 18.27133 | -94.83962 | 34039 ft | 437 kts | 304° |
| 2026-05-03 22:31 | 18.30622 | -94.89305 | 34043 ft | 447 kts | 304° |
| 2026-05-03 22:31 | 18.34148 | -94.94715 | 34042 ft | 448 kts | 304° |
| 2026-05-03 22:32 | 18.37656 | -95.00104 | 34045 ft | 444 kts | 304° |
| 2026-05-03 22:32 | 18.41151 | -95.05472 | 34048 ft | 444 kts | 304° |
| 2026-05-03 22:33 | 18.44651 | -95.10846 | 34048 ft | 445 kts | 304° |
| 2026-05-03 22:33 | 18.48148 | -95.16222 | 34052 ft | 445 kts | 304° |
| 2026-05-03 22:34 | 18.51647 | -95.21606 | 34058 ft | 445 kts | 304° |
| 2026-05-03 22:34 | 18.55142 | -95.26987 | 34062 ft | 445 kts | 304° |
| 2026-05-03 22:35 | 18.58625 | -95.32378 | 34064 ft | 445 kts | 304° |
| 2026-05-03 22:35 | 18.62111 | -95.37768 | 34059 ft | 445 kts | 304° |
| 2026-05-03 22:36 | 18.65597 | -95.43152 | 34061 ft | 444 kts | 304° |
| 2026-05-03 22:36 | 18.69078 | -95.48529 | 34058 ft | 444 kts | 304° |
| 2026-05-03 22:37 | 18.72552 | -95.53893 | 34078 ft | 441 kts | 304° |
| 2026-05-03 22:37 | 18.75976 | -95.59196 | 34072 ft | 439 kts | 304° |
| 2026-05-03 22:38 | 18.79402 | -95.64515 | 34061 ft | 438 kts | 304° |
| 2026-05-03 22:38 | 18.82829 | -95.69832 | 34056 ft | 438 kts | 304° |
| 2026-05-03 22:39 | 18.86259 | -95.75144 | 34046 ft | 438 kts | 304° |
| 2026-05-03 22:39 | 18.89680 | -95.80461 | 34043 ft | 438 kts | 304° |
| 2026-05-03 22:40 | 18.93099 | -95.85793 | 34043 ft | 438 kts | 304° |
| 2026-05-03 22:40 | 18.96524 | -95.91120 | 34042 ft | 438 kts | 304° |
| 2026-05-03 22:41 | 18.99945 | -95.96450 | 34057 ft | 438 kts | 304° |
| 2026-05-03 22:41 | 19.03367 | -96.01787 | 34075 ft | 438 kts | 304° |
| 2026-05-03 22:42 | 19.06782 | -96.07111 | 34092 ft | 437 kts | 304° |
| 2026-05-03 22:42 | 19.10178 | -96.12425 | 34085 ft | 436 kts | 304° |
| 2026-05-03 22:43 | 19.13815 | -96.17544 | 34075 ft | 436 kts | 315° |
| 2026-05-03 22:43 | 19.18744 | -96.21249 | 34070 ft | 438 kts | 333° |
| 2026-05-03 22:44 | 19.24169 | -96.24092 | 34062 ft | 438 kts | 332° |
| 2026-05-03 22:44 | 19.29632 | -96.26975 | 34047 ft | 439 kts | 332° |
| 2026-05-03 22:45 | 19.35093 | -96.29866 | 34031 ft | 439 kts | 332° |
| 2026-05-03 22:45 | 19.40556 | -96.32765 | 34032 ft | 438 kts | 332° |
| 2026-05-03 22:46 | 19.46010 | -96.35647 | 34027 ft | 438 kts | 332° |
| 2026-05-03 22:46 | 19.51461 | -96.38526 | 34028 ft | 438 kts | 332° |
| 2026-05-03 22:47 | 19.56911 | -96.41410 | 34044 ft | 437 kts | 332° |
| 2026-05-03 22:47 | 19.62350 | -96.44294 | 34043 ft | 437 kts | 332° |
| 2026-05-03 22:48 | 19.67788 | -96.47179 | 34046 ft | 436 kts | 332° |
| 2026-05-03 22:48 | 19.73202 | -96.50055 | 34073 ft | 434 kts | 332° |
| 2026-05-03 22:49 | 19.78581 | -96.52912 | 34067 ft | 431 kts | 332° |
| 2026-05-03 22:49 | 19.83943 | -96.55759 | 34088 ft | 430 kts | 332° |
| 2026-05-03 22:50 | 19.89289 | -96.58601 | 34088 ft | 429 kts | 332° |
| 2026-05-03 22:50 | 19.94619 | -96.61441 | 34092 ft | 428 kts | 332° |
| 2026-05-03 22:51 | 19.99944 | -96.64284 | 34088 ft | 428 kts | 332° |
| 2026-05-03 22:51 | 20.05264 | -96.67125 | 34094 ft | 428 kts | 332° |
| 2026-05-03 22:52 | 20.10578 | -96.69959 | 34093 ft | 427 kts | 332° |
| 2026-05-03 22:52 | 20.15884 | -96.72799 | 34091 ft | 427 kts | 332° |
| 2026-05-03 22:53 | 20.20726 | -96.76359 | 34093 ft | 424 kts | 315° |
| 2026-05-03 22:53 | 20.24747 | -96.80945 | 34087 ft | 424 kts | 313° |
| 2026-05-03 22:54 | 20.28766 | -96.85538 | 34086 ft | 424 kts | 313° |
| 2026-05-03 22:54 | 20.32758 | -96.90108 | 34088 ft | 424 kts | 313° |
| 2026-05-03 22:55 | 20.36773 | -96.94712 | 34100 ft | 423 kts | 313° |
| 2026-05-03 22:55 | 20.40776 | -96.99310 | 34099 ft | 423 kts | 313° |
| 2026-05-03 22:56 | 20.44766 | -97.03905 | 34095 ft | 422 kts | 313° |
| 2026-05-03 22:56 | 20.48758 | -97.08489 | 34099 ft | 422 kts | 313° |
| 2026-05-03 22:57 | 20.52748 | -97.13075 | 34109 ft | 421 kts | 313° |
| 2026-05-03 22:57 | 20.56734 | -97.17662 | 34121 ft | 421 kts | 313° |
| 2026-05-03 22:58 | 20.60719 | -97.22252 | 34130 ft | 421 kts | 313° |
| 2026-05-03 22:58 | 20.64694 | -97.26847 | 34136 ft | 421 kts | 313° |
| 2026-05-03 22:59 | 20.68672 | -97.31438 | 34156 ft | 421 kts | 312° |
| 2026-05-03 22:59 | 20.72643 | -97.36026 | 34145 ft | 420 kts | 312° |
| 2026-05-03 23:00 | 20.76604 | -97.40607 | 34150 ft | 420 kts | 312° |
| 2026-05-03 23:00 | 20.80563 | -97.45185 | 34142 ft | 419 kts | 312° |
| 2026-05-03 23:01 | 20.84515 | -97.49767 | 34127 ft | 419 kts | 312° |
| 2026-05-03 23:01 | 20.88473 | -97.54344 | 34102 ft | 419 kts | 312° |
| 2026-05-03 23:02 | 20.92419 | -97.58924 | 34102 ft | 419 kts | 312° |
| 2026-05-03 23:02 | 20.96364 | -97.63513 | 34081 ft | 419 kts | 312° |
| 2026-05-03 23:03 | 20.99648 | -97.67327 | 34119 ft | 419 kts | 312° |
| 2026-05-03 23:03 | 21.03592 | -97.71914 | 34119 ft | 418 kts | 312° |
| 2026-05-03 23:04 | 21.07522 | -97.76496 | 34093 ft | 417 kts | 312° |
| 2026-05-03 23:04 | 21.11448 | -97.81072 | 34099 ft | 417 kts | 312° |
| 2026-05-03 23:05 | 21.15369 | -97.85649 | 34104 ft | 417 kts | 312° |
| 2026-05-03 23:05 | 21.19290 | -97.90225 | 34094 ft | 417 kts | 312° |
| 2026-05-03 23:06 | 21.23209 | -97.94802 | 34094 ft | 417 kts | 312° |
| 2026-05-03 23:06 | 21.27126 | -97.99383 | 34102 ft | 416 kts | 312° |
| 2026-05-03 23:07 | 21.31042 | -98.03955 | 34102 ft | 416 kts | 312° |
| 2026-05-03 23:07 | 21.34953 | -98.08536 | 34092 ft | 416 kts | 312° |
| 2026-05-03 23:08 | 21.38836 | -98.13091 | 34094 ft | 416 kts | 312° |
| 2026-05-03 23:08 | 21.42769 | -98.17708 | 34093 ft | 416 kts | 312° |
| 2026-05-03 23:09 | 21.46674 | -98.22295 | 34087 ft | 416 kts | 312° |
| 2026-05-03 23:09 | 21.50585 | -98.26882 | 34085 ft | 416 kts | 312° |
| 2026-05-03 23:10 | 21.54496 | -98.31474 | 34070 ft | 416 kts | 312° |
| 2026-05-03 23:10 | 21.58373 | -98.36037 | 34073 ft | 416 kts | 312° |
| 2026-05-03 23:11 | 21.62272 | -98.40634 | 34083 ft | 416 kts | 312° |
| 2026-05-03 23:11 | 21.66165 | -98.45222 | 34082 ft | 415 kts | 312° |
| 2026-05-03 23:12 | 21.70047 | -98.49806 | 34080 ft | 414 kts | 312° |
| 2026-05-03 23:12 | 21.73926 | -98.54384 | 34082 ft | 414 kts | 312° |
| 2026-05-03 23:13 | 21.77802 | -98.58968 | 34080 ft | 414 kts | 312° |
| 2026-05-03 23:13 | 21.81672 | -98.63550 | 34081 ft | 414 kts | 312° |
| 2026-05-03 23:14 | 21.85542 | -98.68129 | 34080 ft | 414 kts | 312° |
| 2026-05-03 23:14 | 21.89418 | -98.72711 | 34076 ft | 414 kts | 312° |
| 2026-05-03 23:15 | 21.93285 | -98.77292 | 34097 ft | 413 kts | 312° |
| 2026-05-03 23:15 | 21.97133 | -98.81865 | 34093 ft | 411 kts | 312° |
| 2026-05-03 23:16 | 22.00967 | -98.86436 | 34085 ft | 411 kts | 312° |
| 2026-05-03 23:16 | 22.04798 | -98.90995 | 34085 ft | 410 kts | 312° |
| 2026-05-03 23:17 | 22.08605 | -98.95532 | 34088 ft | 410 kts | 312° |
| 2026-05-03 23:17 | 22.12434 | -99.00092 | 34087 ft | 410 kts | 312° |
| 2026-05-03 23:18 | 22.16263 | -99.04652 | 34089 ft | 410 kts | 312° |
| 2026-05-03 23:18 | 22.20087 | -99.09221 | 34076 ft | 410 kts | 311° |
| 2026-05-03 23:19 | 22.23907 | -99.13782 | 34104 ft | 409 kts | 312° |
| 2026-05-03 23:19 | 22.27716 | -99.18344 | 34098 ft | 409 kts | 311° |
| 2026-05-03 23:20 | 22.31520 | -99.22898 | 34094 ft | 408 kts | 312° |
| 2026-05-03 23:20 | 22.35324 | -99.27451 | 34095 ft | 408 kts | 312° |
| 2026-05-03 23:21 | 22.39122 | -99.31997 | 34097 ft | 407 kts | 312° |
| 2026-05-03 23:21 | 22.42917 | -99.36541 | 34099 ft | 407 kts | 312° |
| 2026-05-03 23:22 | 22.48596 | -99.43363 | 34088 ft | 407 kts | 311° |
| 2026-05-03 23:22 | 22.52374 | -99.47917 | 34096 ft | 406 kts | 311° |
| 2026-05-03 23:23 | 22.56152 | -99.52455 | 34093 ft | 405 kts | 311° |
| 2026-05-03 23:23 | 22.59918 | -99.56990 | 34075 ft | 405 kts | 311° |
| 2026-05-03 23:24 | 22.63683 | -99.61527 | 34071 ft | 405 kts | 311° |
| 2026-05-03 23:24 | 22.67444 | -99.66066 | 34069 ft | 405 kts | 311° |
| 2026-05-03 23:25 | 22.71205 | -99.70612 | 34049 ft | 405 kts | 311° |
| 2026-05-03 23:25 | 22.74935 | -99.75124 | 34048 ft | 405 kts | 311° |
| 2026-05-03 23:26 | 22.78688 | -99.79674 | 34048 ft | 405 kts | 311° |
| 2026-05-03 23:26 | 22.82442 | -99.84226 | 34040 ft | 404 kts | 311° |
| 2026-05-03 23:27 | 22.86194 | -99.88770 | 34032 ft | 404 kts | 311° |
| 2026-05-03 23:27 | 22.89945 | -99.93317 | 34029 ft | 405 kts | 311° |
| 2026-05-03 23:28 | 22.93694 | -99.97872 | 34034 ft | 405 kts | 311° |
| 2026-05-03 23:28 | 22.97450 | -100.02438 | 34018 ft | 405 kts | 311° |
| 2026-05-03 23:29 | 23.01199 | -100.07002 | 34020 ft | 405 kts | 311° |
| 2026-05-03 23:29 | 23.04947 | -100.11570 | 34029 ft | 405 kts | 311° |
| 2026-05-03 23:30 | 23.08697 | -100.16138 | 34014 ft | 405 kts | 311° |
| 2026-05-03 23:30 | 23.12419 | -100.20677 | 34031 ft | 404 kts | 311° |
| 2026-05-03 23:31 | 23.16154 | -100.25234 | 34033 ft | 404 kts | 311° |
| 2026-05-03 23:31 | 23.19880 | -100.29792 | 34016 ft | 403 kts | 311° |
| 2026-05-03 23:32 | 23.23602 | -100.34356 | 34015 ft | 403 kts | 311° |
| 2026-05-03 23:32 | 23.27322 | -100.38915 | 34016 ft | 403 kts | 311° |
| 2026-05-03 23:33 | 23.31042 | -100.43466 | 34014 ft | 402 kts | 311° |
| 2026-05-03 23:33 | 23.34757 | -100.48018 | 34014 ft | 402 kts | 311° |
| 2026-05-03 23:34 | 23.38463 | -100.52572 | 34018 ft | 402 kts | 311° |
| 2026-05-03 23:34 | 23.42165 | -100.57129 | 34031 ft | 401 kts | 310° |
| 2026-05-03 23:35 | 23.45870 | -100.61684 | 33987 ft | 402 kts | 310° |
| 2026-05-03 23:35 | 23.49587 | -100.66258 | 33984 ft | 404 kts | 310° |
| 2026-05-03 23:36 | 23.53313 | -100.70854 | 33986 ft | 405 kts | 310° |
| 2026-05-03 23:36 | 23.57025 | -100.75434 | 33982 ft | 406 kts | 310° |
| 2026-05-03 23:37 | 23.60764 | -100.80051 | 33985 ft | 406 kts | 310° |
| 2026-05-03 23:37 | 23.64507 | -100.84668 | 33994 ft | 407 kts | 310° |
| 2026-05-03 23:38 | 23.68250 | -100.89302 | 33979 ft | 407 kts | 310° |
| 2026-05-03 23:38 | 23.71983 | -100.93929 | 34004 ft | 405 kts | 310° |
| 2026-05-03 23:39 | 23.75699 | -100.98528 | 34002 ft | 403 kts | 310° |
| 2026-05-03 23:39 | 23.79390 | -101.03112 | 33981 ft | 401 kts | 310° |
| 2026-05-03 23:40 | 23.83077 | -101.07691 | 33974 ft | 401 kts | 310° |
| 2026-05-03 23:40 | 23.86753 | -101.12265 | 33970 ft | 400 kts | 310° |
| 2026-05-03 23:41 | 23.90430 | -101.16839 | 33971 ft | 400 kts | 310° |
| 2026-05-03 23:41 | 23.94102 | -101.21411 | 33969 ft | 400 kts | 310° |
| 2026-05-03 23:42 | 23.97772 | -101.25990 | 33990 ft | 400 kts | 310° |
| 2026-05-03 23:42 | 24.01408 | -101.30530 | 33982 ft | 399 kts | 310° |
| 2026-05-03 23:43 | 24.05063 | -101.35091 | 33965 ft | 398 kts | 310° |
| 2026-05-03 23:43 | 24.08729 | -101.39671 | 33962 ft | 397 kts | 310° |
| 2026-05-03 23:44 | 24.12342 | -101.44194 | 33956 ft | 397 kts | 310° |
| 2026-05-03 23:44 | 24.15965 | -101.48750 | 33938 ft | 397 kts | 309° |
| 2026-05-03 23:45 | 24.19398 | -101.53474 | 33939 ft | 396 kts | 307° |
| 2026-05-03 23:45 | 24.22682 | -101.58323 | 33936 ft | 396 kts | 306° |
| 2026-05-03 23:46 | 24.25962 | -101.63170 | 33925 ft | 396 kts | 306° |
| 2026-05-03 23:46 | 24.29284 | -101.67990 | 33927 ft | 396 kts | 306° |
| 2026-05-03 23:47 | 24.32622 | -101.72812 | 33910 ft | 398 kts | 306° |
| 2026-05-03 23:47 | 24.35943 | -101.77620 | 33894 ft | 399 kts | 306° |
| 2026-05-03 23:48 | 24.39317 | -101.82503 | 33897 ft | 400 kts | 306° |
| 2026-05-03 23:48 | 24.42645 | -101.87342 | 33900 ft | 400 kts | 306° |
| 2026-05-03 23:49 | 24.45998 | -101.92225 | 33891 ft | 401 kts | 306° |
| 2026-05-03 23:49 | 24.49355 | -101.97117 | 33894 ft | 401 kts | 306° |
| 2026-05-03 23:50 | 24.52162 | -102.01212 | 33896 ft | 401 kts | 306° |
| 2026-05-03 23:50 | 24.56058 | -102.06893 | 33901 ft | 400 kts | 306° |
| 2026-05-03 23:51 | 24.59411 | -102.11774 | 33895 ft | 400 kts | 306° |
| 2026-05-03 23:51 | 24.62218 | -102.15873 | 33884 ft | 400 kts | 306° |
| 2026-05-03 23:52 | 24.65567 | -102.20772 | 33890 ft | 401 kts | 306° |
| 2026-05-03 23:52 | 24.68918 | -102.25682 | 33895 ft | 401 kts | 306° |
| 2026-05-03 23:53 | 24.72265 | -102.30590 | 33895 ft | 401 kts | 306° |
| 2026-05-03 23:53 | 24.75614 | -102.35499 | 33891 ft | 401 kts | 306° |
| 2026-05-03 23:54 | 24.78953 | -102.40409 | 33894 ft | 401 kts | 306° |
| 2026-05-03 23:54 | 24.82296 | -102.45327 | 33900 ft | 402 kts | 306° |
| 2026-05-03 23:55 | 24.85649 | -102.50260 | 33885 ft | 402 kts | 306° |
| 2026-05-03 23:55 | 24.89005 | -102.55195 | 33891 ft | 403 kts | 306° |
| 2026-05-03 23:56 | 24.92336 | -102.60105 | 33890 ft | 403 kts | 306° |
| 2026-05-03 23:56 | 24.95689 | -102.65048 | 33883 ft | 403 kts | 306° |
| 2026-05-03 23:57 | 24.99034 | -102.69996 | 33890 ft | 402 kts | 305° |
| 2026-05-03 23:57 | 25.02379 | -102.74950 | 33889 ft | 402 kts | 305° |
| 2026-05-03 23:58 | 25.05720 | -102.79904 | 33875 ft | 403 kts | 305° |
| 2026-05-03 23:58 | 25.09071 | -102.84866 | 33901 ft | 404 kts | 305° |
| 2026-05-03 23:59 | 25.12423 | -102.89833 | 33894 ft | 404 kts | 305° |
| 2026-05-03 23:59 | 25.15776 | -102.94806 | 33891 ft | 404 kts | 305° |
| 2026-05-04 00:00 | 25.19124 | -102.99788 | 33895 ft | 404 kts | 305° |
| 2026-05-04 00:00 | 25.22471 | -103.04779 | 33899 ft | 404 kts | 305° |
| 2026-05-04 00:01 | 25.25819 | -103.09762 | 33891 ft | 404 kts | 305° |
| 2026-05-04 00:01 | 25.29166 | -103.14753 | 33883 ft | 404 kts | 305° |
| 2026-05-04 00:02 | 25.32507 | -103.19747 | 33921 ft | 404 kts | 304° |
| 2026-05-04 00:02 | 25.35844 | -103.24742 | 33973 ft | 403 kts | 304° |
| 2026-05-04 00:03 | 25.39179 | -103.29724 | 34002 ft | 402 kts | 304° |
| 2026-05-04 00:03 | 25.42505 | -103.34702 | 34029 ft | 402 kts | 304° |
| 2026-05-04 00:04 | 25.45818 | -103.39665 | 34055 ft | 401 kts | 304° |
| 2026-05-04 00:04 | 25.49129 | -103.44629 | 34062 ft | 400 kts | 304° |
| 2026-05-04 00:05 | 25.52433 | -103.49589 | 34079 ft | 401 kts | 304° |
| 2026-05-04 00:05 | 25.55719 | -103.54519 | 34057 ft | 400 kts | 304° |
| 2026-05-04 00:06 | 25.59009 | -103.59487 | 34023 ft | 400 kts | 304° |
| 2026-05-04 00:06 | 25.62297 | -103.64444 | 34012 ft | 399 kts | 303° |
| 2026-05-04 00:07 | 25.65591 | -103.69402 | 33973 ft | 398 kts | 304° |
| 2026-05-04 00:07 | 25.68861 | -103.74341 | 33930 ft | 397 kts | 304° |
| 2026-05-04 00:08 | 25.72122 | -103.79280 | 33912 ft | 397 kts | 304° |
| 2026-05-04 00:08 | 25.75384 | -103.84222 | 33912 ft | 397 kts | 304° |
| 2026-05-04 00:09 | 25.78647 | -103.89172 | 33874 ft | 398 kts | 304° |
| 2026-05-04 00:09 | 25.81930 | -103.94152 | 33871 ft | 401 kts | 304° |
| 2026-05-04 00:10 | 25.85230 | -103.99155 | 33873 ft | 402 kts | 304° |
| 2026-05-04 00:10 | 25.88541 | -104.04179 | 33896 ft | 404 kts | 303° |
| 2026-05-04 00:11 | 25.91852 | -104.09220 | 33908 ft | 403 kts | 303° |
| 2026-05-04 00:11 | 25.95152 | -104.14264 | 33908 ft | 403 kts | 303° |
| 2026-05-04 00:12 | 25.98454 | -104.19300 | 33907 ft | 403 kts | 303° |
| 2026-05-04 00:12 | 26.01759 | -104.24335 | 33890 ft | 403 kts | 304° |
| 2026-05-04 00:13 | 26.05058 | -104.29373 | 33892 ft | 403 kts | 304° |
| 2026-05-04 00:13 | 26.08343 | -104.34407 | 33896 ft | 402 kts | 304° |
| 2026-05-04 00:14 | 26.11606 | -104.39408 | 33903 ft | 402 kts | 304° |
| 2026-05-04 00:14 | 26.14890 | -104.44439 | 33930 ft | 401 kts | 303° |
| 2026-05-04 00:15 | 26.18156 | -104.49458 | 33922 ft | 399 kts | 304° |
| 2026-05-04 00:15 | 26.21406 | -104.54448 | 33925 ft | 397 kts | 304° |
| 2026-05-04 00:16 | 26.24637 | -104.59424 | 33925 ft | 396 kts | 303° |
| 2026-05-04 00:16 | 26.27858 | -104.64393 | 33921 ft | 395 kts | 303° |
| 2026-05-04 00:17 | 26.31082 | -104.69356 | 33920 ft | 395 kts | 303° |
| 2026-05-04 00:17 | 26.34300 | -104.74322 | 33923 ft | 395 kts | 303° |
| 2026-05-04 00:18 | 26.37511 | -104.79290 | 33926 ft | 395 kts | 303° |
| 2026-05-04 00:18 | 26.40726 | -104.84260 | 33947 ft | 394 kts | 303° |
| 2026-05-04 00:19 | 26.43929 | -104.89217 | 33942 ft | 393 kts | 303° |
| 2026-05-04 00:19 | 26.47123 | -104.94159 | 33907 ft | 392 kts | 303° |
| 2026-05-04 00:20 | 26.50311 | -104.99108 | 33906 ft | 393 kts | 303° |
| 2026-05-04 00:20 | 26.53498 | -105.04067 | 33909 ft | 393 kts | 303° |
| 2026-05-04 00:21 | 26.56689 | -105.09034 | 33913 ft | 394 kts | 303° |
| 2026-05-04 00:21 | 26.59878 | -105.14004 | 33916 ft | 394 kts | 303° |
| 2026-05-04 00:22 | 26.63071 | -105.18977 | 33920 ft | 394 kts | 303° |
| 2026-05-04 00:22 | 26.66240 | -105.23923 | 33947 ft | 394 kts | 302° |
| 2026-05-04 00:23 | 26.69442 | -105.28934 | 33918 ft | 393 kts | 303° |
| 2026-05-04 00:23 | 26.72601 | -105.33868 | 33925 ft | 393 kts | 303° |
| 2026-05-04 00:24 | 26.75782 | -105.38830 | 33921 ft | 392 kts | 303° |
| 2026-05-04 00:24 | 26.78942 | -105.43798 | 33924 ft | 392 kts | 303° |
| 2026-05-04 00:25 | 26.82106 | -105.48764 | 33923 ft | 391 kts | 303° |
| 2026-05-04 00:25 | 26.85285 | -105.53757 | 33916 ft | 391 kts | 303° |
| 2026-05-04 00:26 | 26.88443 | -105.58723 | 33915 ft | 391 kts | 303° |
| 2026-05-04 00:26 | 26.91593 | -105.63692 | 33917 ft | 391 kts | 302° |
| 2026-05-04 00:27 | 26.94708 | -105.68612 | 33928 ft | 388 kts | 302° |
| 2026-05-04 00:27 | 26.97835 | -105.73538 | 33920 ft | 387 kts | 302° |
| 2026-05-04 00:28 | 27.00952 | -105.78459 | 33913 ft | 386 kts | 302° |
| 2026-05-04 00:28 | 27.04092 | -105.83413 | 33920 ft | 387 kts | 302° |
| 2026-05-04 00:29 | 27.07203 | -105.88341 | 33910 ft | 387 kts | 302° |
| 2026-05-04 00:29 | 27.10304 | -105.93249 | 33919 ft | 388 kts | 302° |
| 2026-05-04 00:30 | 27.13421 | -105.98194 | 33921 ft | 388 kts | 302° |
| 2026-05-04 00:30 | 27.16536 | -106.03153 | 33905 ft | 389 kts | 302° |
| 2026-05-04 00:31 | 27.19659 | -106.08126 | 33909 ft | 390 kts | 302° |
| 2026-05-04 00:31 | 27.22785 | -106.13108 | 33910 ft | 390 kts | 302° |
| 2026-05-04 00:32 | 27.25916 | -106.18092 | 33901 ft | 390 kts | 302° |
| 2026-05-04 00:32 | 27.29050 | -106.23077 | 33917 ft | 390 kts | 302° |
| 2026-05-04 00:33 | 27.33742 | -106.30562 | 33919 ft | 391 kts | 301° |
| 2026-05-04 00:34 | 27.36858 | -106.35569 | 33929 ft | 391 kts | 301° |
| 2026-05-04 00:34 | 27.39449 | -106.39722 | 33975 ft | 390 kts | 301° |
| 2026-05-04 00:35 | 27.42565 | -106.44716 | 33953 ft | 389 kts | 301° |
| 2026-05-04 00:35 | 27.46179 | -106.50526 | 33963 ft | 390 kts | 301° |
| 2026-05-04 00:36 | 27.49289 | -106.55530 | 33965 ft | 390 kts | 301° |
| 2026-05-04 00:36 | 27.51896 | -106.59725 | 33966 ft | 391 kts | 301° |
| 2026-05-04 00:37 | 27.54991 | -106.64705 | 33990 ft | 391 kts | 301° |
| 2026-05-04 00:37 | 27.58108 | -106.69724 | 33985 ft | 390 kts | 301° |
| 2026-05-04 00:38 | 27.61217 | -106.74743 | 33967 ft | 391 kts | 301° |
| 2026-05-04 00:38 | 27.64331 | -106.79771 | 34011 ft | 391 kts | 301° |
| 2026-05-04 00:39 | 27.67445 | -106.84811 | 34001 ft | 391 kts | 301° |
| 2026-05-04 00:39 | 27.70550 | -106.89855 | 33997 ft | 391 kts | 302° |
| 2026-05-04 00:40 | 27.73656 | -106.94896 | 34018 ft | 391 kts | 301° |
| 2026-05-04 00:40 | 27.76765 | -106.99934 | 34015 ft | 391 kts | 301° |
| 2026-05-04 00:41 | 27.79873 | -107.04981 | 34026 ft | 391 kts | 301° |
| 2026-05-04 00:41 | 27.82959 | -107.10005 | 34023 ft | 392 kts | 301° |
| 2026-05-04 00:42 | 27.86066 | -107.15070 | 34024 ft | 393 kts | 301° |
| 2026-05-04 00:42 | 27.89178 | -107.20141 | 34065 ft | 392 kts | 301° |
| 2026-05-04 00:43 | 27.92285 | -107.25197 | 34062 ft | 391 kts | 301° |
| 2026-05-04 00:43 | 27.95377 | -107.30263 | 34063 ft | 391 kts | 301° |
| 2026-05-04 00:44 | 27.98460 | -107.35322 | 34076 ft | 391 kts | 301° |
| 2026-05-04 00:44 | 28.01550 | -107.40374 | 34061 ft | 390 kts | 301° |
| 2026-05-04 00:45 | 28.04627 | -107.45437 | 34056 ft | 391 kts | 301° |
| 2026-05-04 00:45 | 28.07707 | -107.50511 | 34065 ft | 391 kts | 301° |
| 2026-05-04 00:46 | 28.10789 | -107.55577 | 34094 ft | 391 kts | 301° |
| 2026-05-04 00:46 | 28.13871 | -107.60655 | 34099 ft | 391 kts | 300° |
| 2026-05-04 00:47 | 28.16951 | -107.65725 | 34090 ft | 391 kts | 300° |
| 2026-05-04 00:47 | 28.20003 | -107.70773 | 34079 ft | 390 kts | 300° |
| 2026-05-04 00:48 | 28.23069 | -107.75851 | 34085 ft | 390 kts | 300° |
| 2026-05-04 00:48 | 28.26139 | -107.80932 | 34073 ft | 390 kts | 300° |
| 2026-05-04 00:49 | 28.29203 | -107.86017 | 34062 ft | 391 kts | 300° |
| 2026-05-04 00:49 | 28.32273 | -107.91116 | 34065 ft | 391 kts | 300° |
| 2026-05-04 00:50 | 28.35349 | -107.96214 | 34098 ft | 391 kts | 300° |
| 2026-05-04 00:50 | 28.38405 | -108.01297 | 34077 ft | 388 kts | 300° |
| 2026-05-04 00:51 | 28.41438 | -108.06359 | 34082 ft | 388 kts | 300° |
| 2026-05-04 00:51 | 28.44475 | -108.11418 | 34078 ft | 387 kts | 300° |
| 2026-05-04 00:52 | 28.47506 | -108.16471 | 34064 ft | 387 kts | 300° |
| 2026-05-04 00:52 | 28.50531 | -108.21519 | 34059 ft | 386 kts | 300° |
| 2026-05-04 00:53 | 28.53530 | -108.26529 | 34056 ft | 386 kts | 300° |
| 2026-05-04 00:53 | 28.56543 | -108.31581 | 34058 ft | 386 kts | 300° |
| 2026-05-04 00:54 | 28.59552 | -108.36633 | 34062 ft | 385 kts | 300° |
| 2026-05-04 00:54 | 28.62551 | -108.41678 | 34053 ft | 385 kts | 299° |
| 2026-05-04 00:55 | 28.65554 | -108.46724 | 34027 ft | 385 kts | 300° |
| 2026-05-04 00:55 | 28.68559 | -108.51778 | 34036 ft | 386 kts | 300° |
| 2026-05-04 00:56 | 28.71550 | -108.56835 | 34037 ft | 385 kts | 300° |
| 2026-05-04 00:56 | 28.74539 | -108.61899 | 34025 ft | 385 kts | 300° |
| 2026-05-04 00:57 | 28.77533 | -108.66966 | 34025 ft | 385 kts | 300° |
| 2026-05-04 00:57 | 28.80522 | -108.72033 | 34022 ft | 385 kts | 300° |
| 2026-05-04 00:58 | 28.83501 | -108.77106 | 34016 ft | 384 kts | 300° |
| 2026-05-04 00:58 | 28.86469 | -108.82160 | 34017 ft | 383 kts | 300° |
| 2026-05-04 00:59 | 28.89427 | -108.87201 | 34000 ft | 382 kts | 300° |
| 2026-05-04 00:59 | 28.92370 | -108.92200 | 33985 ft | 382 kts | 300° |
| 2026-05-04 01:00 | 28.95324 | -108.97232 | 33987 ft | 382 kts | 300° |
| 2026-05-04 01:00 | 28.98273 | -109.02271 | 33977 ft | 381 kts | 300° |
| 2026-05-04 01:01 | 29.01204 | -109.07300 | 33984 ft | 380 kts | 299° |
| 2026-05-04 01:01 | 29.04130 | -109.12326 | 33974 ft | 379 kts | 299° |
| 2026-05-04 01:02 | 29.07050 | -109.17342 | 33968 ft | 379 kts | 299° |
| 2026-05-04 01:02 | 29.09975 | -109.22352 | 33958 ft | 379 kts | 299° |
| 2026-05-04 01:03 | 29.12903 | -109.27372 | 33940 ft | 379 kts | 299° |
| 2026-05-04 01:03 | 29.15818 | -109.32389 | 33941 ft | 379 kts | 299° |
| 2026-05-04 01:04 | 29.18726 | -109.37412 | 33937 ft | 379 kts | 299° |
| 2026-05-04 01:04 | 29.21638 | -109.42435 | 33924 ft | 378 kts | 299° |
| 2026-05-04 01:05 | 29.24544 | -109.47465 | 33920 ft | 378 kts | 298° |
| 2026-05-04 01:05 | 29.27451 | -109.52502 | 33917 ft | 379 kts | 299° |
| 2026-05-04 01:06 | 29.30340 | -109.57505 | 33912 ft | 379 kts | 298° |
| 2026-05-04 01:06 | 29.33244 | -109.62549 | 33913 ft | 379 kts | 298° |
| 2026-05-04 01:07 | 29.36141 | -109.67588 | 33916 ft | 379 kts | 298° |
| 2026-05-04 01:07 | 29.39042 | -109.72638 | 33916 ft | 379 kts | 299° |
| 2026-05-04 01:08 | 29.41937 | -109.77679 | 33909 ft | 379 kts | 299° |
| 2026-05-04 01:08 | 29.44838 | -109.82726 | 33932 ft | 379 kts | 298° |
| 2026-05-04 01:09 | 29.47729 | -109.87768 | 33934 ft | 377 kts | 298° |
| 2026-05-04 01:09 | 29.50609 | -109.92793 | 33926 ft | 376 kts | 298° |
| 2026-05-04 01:10 | 29.53471 | -109.97809 | 33910 ft | 376 kts | 298° |
| 2026-05-04 01:10 | 29.56341 | -110.02834 | 33916 ft | 377 kts | 298° |
| 2026-05-04 01:11 | 29.59191 | -110.07828 | 33919 ft | 376 kts | 298° |
| 2026-05-04 01:11 | 29.62050 | -110.12856 | 33924 ft | 376 kts | 298° |
| 2026-05-04 01:12 | 29.64904 | -110.17878 | 33898 ft | 375 kts | 298° |
| 2026-05-04 01:12 | 29.67760 | -110.22908 | 33930 ft | 375 kts | 298° |
| 2026-05-04 01:13 | 29.70612 | -110.27922 | 33932 ft | 374 kts | 298° |
| 2026-05-04 01:13 | 29.73452 | -110.32923 | 33932 ft | 373 kts | 298° |
| 2026-05-04 01:14 | 29.76281 | -110.37917 | 33928 ft | 372 kts | 298° |
| 2026-05-04 01:14 | 29.79096 | -110.42911 | 33922 ft | 372 kts | 298° |
| 2026-05-04 01:15 | 29.81909 | -110.47905 | 33907 ft | 372 kts | 298° |
| 2026-05-04 01:15 | 29.84730 | -110.52904 | 33903 ft | 373 kts | 298° |
| 2026-05-04 01:16 | 29.87554 | -110.57910 | 33929 ft | 373 kts | 297° |
| 2026-05-04 01:16 | 29.90377 | -110.62928 | 33922 ft | 373 kts | 297° |
| 2026-05-04 01:17 | 29.93196 | -110.67951 | 33920 ft | 373 kts | 297° |
| 2026-05-04 01:17 | 29.96014 | -110.72977 | 33926 ft | 373 kts | 297° |
| 2026-05-04 01:18 | 29.98835 | -110.78006 | 33917 ft | 373 kts | 297° |
| 2026-05-04 01:18 | 30.01653 | -110.83046 | 33922 ft | 374 kts | 297° |
| 2026-05-04 01:19 | 30.04472 | -110.88090 | 33914 ft | 374 kts | 297° |
| 2026-05-04 01:19 | 30.07299 | -110.93148 | 33916 ft | 375 kts | 297° |
| 2026-05-04 01:20 | 30.10115 | -110.98207 | 33935 ft | 374 kts | 297° |
| 2026-05-04 01:20 | 30.12911 | -111.03218 | 33932 ft | 373 kts | 297° |
| 2026-05-04 01:21 | 30.15738 | -111.08242 | 33927 ft | 373 kts | 297° |
| 2026-05-04 01:21 | 30.18559 | -111.13265 | 33926 ft | 372 kts | 297° |
| 2026-05-04 01:22 | 30.21372 | -111.18290 | 33918 ft | 372 kts | 296° |
| 2026-05-04 01:22 | 30.24177 | -111.23312 | 33915 ft | 372 kts | 296° |
| 2026-05-04 01:23 | 30.26981 | -111.28337 | 33919 ft | 372 kts | 296° |
| 2026-05-04 01:23 | 30.29784 | -111.33367 | 33935 ft | 372 kts | 296° |
| 2026-05-04 01:24 | 30.32599 | -111.38399 | 33921 ft | 373 kts | 296° |
| 2026-05-04 01:24 | 30.35407 | -111.43435 | 33922 ft | 372 kts | 296° |
| 2026-05-04 01:25 | 30.38200 | -111.48465 | 33911 ft | 371 kts | 296° |
| 2026-05-04 01:25 | 30.40515 | -111.52642 | 33910 ft | 371 kts | 296° |
| 2026-05-04 01:26 | 30.43300 | -111.57667 | 33905 ft | 370 kts | 296° |
| 2026-05-04 01:26 | 30.46080 | -111.62692 | 33896 ft | 370 kts | 296° |
| 2026-05-04 01:27 | 30.48857 | -111.67721 | 33908 ft | 371 kts | 296° |
| 2026-05-04 01:27 | 30.51637 | -111.72764 | 33892 ft | 372 kts | 296° |
| 2026-05-04 01:28 | 30.54429 | -111.77828 | 33878 ft | 373 kts | 296° |
| 2026-05-04 01:28 | 30.57222 | -111.82895 | 33867 ft | 373 kts | 296° |
| 2026-05-04 01:29 | 30.60015 | -111.87981 | 33871 ft | 373 kts | 296° |
| 2026-05-04 01:29 | 30.62801 | -111.93056 | 33875 ft | 373 kts | 296° |
| 2026-05-04 01:30 | 30.65588 | -111.98131 | 33870 ft | 373 kts | 296° |
| 2026-05-04 01:30 | 30.68373 | -112.03217 | 33901 ft | 373 kts | 295° |
| 2026-05-04 01:31 | 30.71151 | -112.08306 | 33889 ft | 373 kts | 295° |
| 2026-05-04 01:31 | 30.73933 | -112.13407 | 33867 ft | 374 kts | 295° |
| 2026-05-04 01:32 | 30.76720 | -112.18517 | 33866 ft | 374 kts | 295° |
| 2026-05-04 01:32 | 30.79515 | -112.23642 | 33872 ft | 375 kts | 295° |
| 2026-05-04 01:33 | 30.82306 | -112.28779 | 33873 ft | 376 kts | 295° |
| 2026-05-04 01:33 | 30.85080 | -112.33883 | 33883 ft | 376 kts | 295° |
| 2026-05-04 01:34 | 30.87876 | -112.39024 | 33927 ft | 376 kts | 295° |
| 2026-05-04 01:34 | 30.90665 | -112.44164 | 33918 ft | 375 kts | 295° |
| 2026-05-04 01:35 | 30.93437 | -112.49301 | 33884 ft | 374 kts | 295° |
| 2026-05-04 01:35 | 30.96210 | -112.54437 | 33877 ft | 375 kts | 295° |
| 2026-05-04 01:36 | 30.98988 | -112.59588 | 33876 ft | 376 kts | 295° |
| 2026-05-04 01:36 | 31.01775 | -112.64743 | 33875 ft | 376 kts | 295° |
| 2026-05-04 01:37 | 31.04558 | -112.69903 | 33876 ft | 376 kts | 295° |
| 2026-05-04 01:37 | 31.07338 | -112.75069 | 33914 ft | 376 kts | 294° |
| 2026-05-04 01:38 | 31.10116 | -112.80233 | 33901 ft | 375 kts | 294° |
| 2026-05-04 01:38 | 31.12861 | -112.85356 | 33895 ft | 375 kts | 294° |
| 2026-05-04 01:39 | 31.15619 | -112.90515 | 33895 ft | 375 kts | 294° |
| 2026-05-04 01:39 | 31.18380 | -112.95675 | 33893 ft | 375 kts | 294° |
| 2026-05-04 01:40 | 31.21133 | -113.00841 | 33889 ft | 374 kts | 294° |
| 2026-05-04 01:40 | 31.23888 | -113.06004 | 33889 ft | 375 kts | 294° |
| 2026-05-04 01:41 | 31.26646 | -113.11169 | 33892 ft | 374 kts | 294° |
| 2026-05-04 01:41 | 31.29397 | -113.16343 | 33889 ft | 375 kts | 294° |
| 2026-05-04 01:42 | 31.32149 | -113.21523 | 33890 ft | 375 kts | 294° |
| 2026-05-04 01:42 | 31.34900 | -113.26702 | 33889 ft | 375 kts | 294° |
| 2026-05-04 01:43 | 31.37371 | -113.32004 | 33889 ft | 366 kts | 285° |
| 2026-05-04 01:43 | 31.39249 | -113.37543 | 33886 ft | 366 kts | 285° |
| 2026-05-04 01:44 | 31.41114 | -113.43088 | 33871 ft | 367 kts | 285° |
| 2026-05-04 01:44 | 31.42990 | -113.48645 | 33839 ft | 367 kts | 285° |
| 2026-05-04 01:45 | 31.44873 | -113.54214 | 33855 ft | 368 kts | 285° |
| 2026-05-04 01:45 | 31.47677 | -113.62527 | 33848 ft | 367 kts | 285° |
| 2026-05-04 01:46 | 31.49552 | -113.68095 | 33847 ft | 367 kts | 285° |
| 2026-05-04 01:46 | 31.51422 | -113.73660 | 33850 ft | 367 kts | 285° |
| 2026-05-04 01:47 | 31.53286 | -113.79236 | 33822 ft | 368 kts | 284° |
| 2026-05-04 01:47 | 31.55155 | -113.84825 | 33834 ft | 368 kts | 284° |
| 2026-05-04 01:48 | 31.57020 | -113.90418 | 33825 ft | 368 kts | 284° |
| 2026-05-04 01:48 | 31.58885 | -113.96022 | 33824 ft | 369 kts | 284° |
| 2026-05-04 01:49 | 31.60755 | -114.01626 | 33844 ft | 368 kts | 284° |
| 2026-05-04 01:49 | 31.62610 | -114.07207 | 33837 ft | 366 kts | 284° |
| 2026-05-04 01:50 | 31.64460 | -114.12771 | 33835 ft | 366 kts | 284° |
| 2026-05-04 01:50 | 31.66306 | -114.18334 | 33824 ft | 365 kts | 284° |
| 2026-05-04 01:51 | 31.68138 | -114.23894 | 33819 ft | 365 kts | 284° |
| 2026-05-04 01:51 | 31.69967 | -114.29455 | 33816 ft | 365 kts | 284° |
| 2026-05-04 01:52 | 31.71798 | -114.35013 | 33812 ft | 365 kts | 284° |
| 2026-05-04 01:52 | 31.73622 | -114.40539 | 33802 ft | 365 kts | 283° |
| 2026-05-04 01:53 | 31.75453 | -114.46119 | 33792 ft | 366 kts | 283° |
| 2026-05-04 01:53 | 31.77279 | -114.51718 | 33797 ft | 367 kts | 283° |
| 2026-05-04 01:54 | 31.79110 | -114.57317 | 33801 ft | 367 kts | 283° |
| 2026-05-04 01:54 | 31.80941 | -114.62912 | 33800 ft | 367 kts | 283° |
| 2026-05-04 01:55 | 31.82768 | -114.68510 | 33799 ft | 367 kts | 283° |
| 2026-05-04 01:55 | 31.84588 | -114.74118 | 33799 ft | 367 kts | 283° |
| 2026-05-04 01:56 | 31.86408 | -114.79729 | 33807 ft | 367 kts | 283° |
| 2026-05-04 01:56 | 31.88233 | -114.85346 | 33811 ft | 368 kts | 283° |
| 2026-05-04 01:57 | 31.90060 | -114.90973 | 33814 ft | 368 kts | 283° |
| 2026-05-04 01:57 | 31.91881 | -114.96595 | 33844 ft | 367 kts | 283° |
| 2026-05-04 01:58 | 31.93685 | -115.02190 | 33847 ft | 365 kts | 283° |
| 2026-05-04 01:58 | 31.95479 | -115.07761 | 33840 ft | 363 kts | 283° |
| 2026-05-04 01:59 | 31.97267 | -115.13301 | 33838 ft | 361 kts | 283° |
| 2026-05-04 01:59 | 31.99040 | -115.18827 | 33835 ft | 360 kts | 283° |
| 2026-05-04 02:00 | 32.00809 | -115.24349 | 33826 ft | 360 kts | 283° |
| 2026-05-04 02:00 | 32.02566 | -115.29839 | 33832 ft | 361 kts | 283° |
| 2026-05-04 02:01 | 32.04343 | -115.35398 | 33830 ft | 357 kts | 282° |
| 2026-05-04 02:01 | 32.06063 | -115.40769 | 32757 ft | 351 kts | 282° |
| 2026-05-04 02:02 | 32.06929 | -115.43502 | 31257 ft | 360 kts | 283° |
| 2026-05-04 02:02 | 32.07809 | -115.46286 | 30022 ft | 363 kts | 284° |
| 2026-05-04 02:02 | 32.08694 | -115.49067 | 28788 ft | 361 kts | 284° |
| 2026-05-04 02:02 | 32.09571 | -115.51828 | 27655 ft | 358 kts | 284° |
| 2026-05-04 02:03 | 32.10443 | -115.54576 | 26519 ft | 356 kts | 284° |
| 2026-05-04 02:03 | 32.11309 | -115.57308 | 25428 ft | 354 kts | 284° |
| 2026-05-04 02:03 | 32.12169 | -115.60027 | 24425 ft | 353 kts | 284° |
| 2026-05-04 02:03 | 32.13011 | -115.62672 | 24096 ft | 334 kts | 284° |
| 2026-05-04 02:04 | 32.13814 | -115.65172 | 23706 ft | 319 kts | 284° |
| 2026-05-04 02:04 | 32.14580 | -115.67567 | 23338 ft | 307 kts | 284° |
| 2026-05-04 02:04 | 32.15329 | -115.69939 | 22901 ft | 309 kts | 284° |
| 2026-05-04 02:04 | 32.16073 | -115.72322 | 22484 ft | 310 kts | 284° |
| 2026-05-04 02:05 | 32.16817 | -115.74706 | 22073 ft | 309 kts | 284° |
| 2026-05-04 02:05 | 32.17561 | -115.77089 | 21687 ft | 308 kts | 284° |
| 2026-05-04 02:05 | 32.18302 | -115.79458 | 21247 ft | 307 kts | 284° |
| 2026-05-04 02:05 | 32.19040 | -115.81814 | 20814 ft | 306 kts | 284° |
| 2026-05-04 02:06 | 32.19776 | -115.84169 | 20381 ft | 305 kts | 285° |
| 2026-05-04 02:06 | 32.20512 | -115.86520 | 19943 ft | 305 kts | 284° |
| 2026-05-04 02:06 | 32.21244 | -115.88853 | 19521 ft | 301 kts | 284° |
| 2026-05-04 02:06 | 32.21973 | -115.91165 | 19117 ft | 300 kts | 284° |
| 2026-05-04 02:07 | 32.22684 | -115.93438 | 18679 ft | 299 kts | 284° |
| 2026-05-04 02:07 | 32.23409 | -115.95768 | 18210 ft | 298 kts | 285° |
| 2026-05-04 02:07 | 32.24114 | -115.98041 | 17752 ft | 298 kts | 285° |
| 2026-05-04 02:07 | 32.24840 | -116.00364 | 17297 ft | 297 kts | 285° |
| 2026-05-04 02:08 | 32.25543 | -116.02612 | 16919 ft | 296 kts | 285° |
| 2026-05-04 02:08 | 32.26266 | -116.04916 | 16492 ft | 294 kts | 285° |
| 2026-05-04 02:08 | 32.26963 | -116.07141 | 16076 ft | 292 kts | 285° |
| 2026-05-04 02:08 | 32.27664 | -116.09387 | 15650 ft | 290 kts | 285° |
| 2026-05-04 02:09 | 32.28359 | -116.11617 | 15232 ft | 288 kts | 285° |
| 2026-05-04 02:09 | 32.29047 | -116.13833 | 14853 ft | 287 kts | 285° |
| 2026-05-04 02:09 | 32.29730 | -116.16039 | 14430 ft | 285 kts | 285° |
| 2026-05-04 02:09 | 32.30410 | -116.18235 | 14021 ft | 283 kts | 285° |
| 2026-05-04 02:10 | 32.31088 | -116.20429 | 13586 ft | 285 kts | 285° |
| 2026-05-04 02:10 | 32.31767 | -116.22629 | 13157 ft | 285 kts | 285° |
| 2026-05-04 02:10 | 32.32447 | -116.24827 | 12761 ft | 285 kts | 285° |
| 2026-05-04 02:10 | 32.33126 | -116.27023 | 12398 ft | 285 kts | 284° |
| 2026-05-04 02:11 | 32.33808 | -116.29235 | 11983 ft | 287 kts | 285° |
| 2026-05-04 02:11 | 32.34495 | -116.31456 | 11577 ft | 288 kts | 285° |
| 2026-05-04 02:11 | 32.35183 | -116.33682 | 11184 ft | 289 kts | 284° |
| 2026-05-04 02:11 | 32.35872 | -116.35918 | 10774 ft | 290 kts | 284° |
| 2026-05-04 02:12 | 32.36563 | -116.38164 | 10384 ft | 291 kts | 284° |
| 2026-05-04 02:12 | 32.37249 | -116.40384 | 10223 ft | 282 kts | 284° |
| 2026-05-04 02:12 | 32.37913 | -116.42531 | 10064 ft | 275 kts | 284° |
| 2026-05-04 02:12 | 32.38562 | -116.44627 | 9967 ft | 269 kts | 284° |
| 2026-05-04 02:13 | 32.38988 | -116.46012 | 9714 ft | 274 kts | 284° |
| 2026-05-04 02:13 | 32.39568 | -116.48169 | 9286 ft | 272 kts | 279° |
| 2026-05-04 02:13 | 32.39965 | -116.50331 | 8893 ft | 265 kts | 274° |
| 2026-05-04 02:13 | 32.40251 | -116.52479 | 8273 ft | 264 kts | 274° |
| 2026-05-04 02:14 | 32.40537 | -116.54615 | 7674 ft | 262 kts | 274° |
| 2026-05-04 02:14 | 32.40825 | -116.56743 | 7032 ft | 261 kts | 276° |
| 2026-05-04 02:14 | 32.41111 | -116.58875 | 6359 ft | 264 kts | 276° |
| 2026-05-04 02:14 | 32.41399 | -116.61026 | 5779 ft | 263 kts | 276° |
| 2026-05-04 02:15 | 32.41679 | -116.63101 | 5577 ft | 247 kts | 277° |
| 2026-05-04 02:15 | 32.41993 | -116.65031 | 5454 ft | 230 kts | 281° |
| 2026-05-04 02:15 | 32.42408 | -116.66804 | 5359 ft | 219 kts | 284° |
| 2026-05-04 02:15 | 32.42854 | -116.68514 | 5269 ft | 217 kts | 285° |
| 2026-05-04 02:16 | 32.43297 | -116.70219 | 5169 ft | 217 kts | 285° |
| 2026-05-04 02:16 | 32.43739 | -116.71921 | 5076 ft | 215 kts | 284° |
| 2026-05-04 02:16 | 32.44181 | -116.73624 | 4830 ft | 218 kts | 285° |
| 2026-05-04 02:16 | 32.44625 | -116.75341 | 4523 ft | 218 kts | 285° |
| 2026-05-04 02:17 | 32.45066 | -116.77042 | 4231 ft | 215 kts | 285° |
| 2026-05-04 02:17 | 32.45503 | -116.78725 | 3950 ft | 214 kts | 285° |
| 2026-05-04 02:17 | 32.45941 | -116.80414 | 3666 ft | 215 kts | 285° |
| 2026-05-04 02:17 | 32.46387 | -116.82088 | 3381 ft | 210 kts | 291° |
| 2026-05-04 02:18 | 32.47119 | -116.83546 | 3115 ft | 204 kts | 308° |
| 2026-05-04 02:18 | 32.48162 | -116.84638 | 2826 ft | 200 kts | 323° |
| 2026-05-04 02:18 | 32.49397 | -116.85322 | 2603 ft | 196 kts | 336° |
| 2026-05-04 02:18 | 32.50646 | -116.85885 | 2314 ft | 188 kts | 334° |
| 2026-05-04 02:19 | 32.51716 | -116.86635 | 2046 ft | 171 kts | 313° |
| 2026-05-04 02:19 | 32.52483 | -116.87632 | 1837 ft | 157 kts | 300° |
| 2026-05-04 02:19 | 32.52953 | -116.88744 | 1638 ft | 147 kts | 286° |
| 2026-05-04 02:19 | 32.53167 | -116.89894 | 1441 ft | 141 kts | 277° |
| 2026-05-04 02:20 | 32.53313 | -116.91032 | 1246 ft | 141 kts | 277° |
| 2026-05-04 02:20 | 32.53463 | -116.92180 | 1048 ft | 142 kts | 277° |
| 2026-05-04 02:20 | 32.53616 | -116.93332 | 858 ft | 141 kts | 276° |
| 2026-05-04 02:20 | 32.53769 | -116.94470 | 670 ft | 140 kts | 277° |
| 2026-05-04 02:21 | 32.53924 | -116.95603 | 524 ft | 139 kts | 276° |
| 2026-05-04 02:21 | 32.54053 | -116.96634 | 494 ft | 107 kts | 276° |
| 2026-05-04 02:21 | 32.54127 | -116.97147 | 484 ft | 19 kts | 284° |
| 2026-05-04 02:21 | 32.54140 | -116.97190 | 490 ft | 7 kts | 290° |
| 2026-05-04 02:22 | 32.54165 | -116.97245 | 485 ft | 9 kts | 301° |
| 2026-05-04 02:22 | 32.54207 | -116.97308 | 492 ft | 10 kts | 311° |
| 2026-05-04 02:22 | 32.54252 | -116.97371 | 496 ft | 10 kts | 312° |
| 2026-05-04 02:22 | 32.54311 | -116.97412 | 491 ft | 10 kts | 348° |
| 2026-05-04 02:23 | 32.54375 | -116.97443 | 487 ft | 11 kts | 300° |
| 2026-05-04 02:23 | 32.54391 | -116.97539 | 498 ft | 13 kts | 278° |
| 2026-05-04 02:23 | 32.54449 | -116.97610 | 495 ft | 13 kts | 318° |
| 2026-05-04 02:23 | 32.54476 | -116.97656 | 490 ft | 0 kts | 302° |